Aviation Digital Data Service (ADDS)

Output produced by TAFs form (1030 UTC 07 December 2016)
found at http://aviationweather.gov/adds/tafs/
 
KROW 070539Z 0706/0806 17005KT P6SM SCT200 
     FM071100 17005KT P6SM VCFG FEW006 BKN200 
     TEMPO 0711/0715 3SM BR SCT006 
     FM071800 02008KT P6SM BKN200 
     FM072300 02015KT P6SM SCT250